sensor_id;sensor_type;location;lat;lon;timestamp;pressure;altitude;pressure_sealevel;temperature;humidity
61484;BME280;47349;55.640;37.692;2023-11-22T00:00:48;99211.38;;;-9.67;100.00
61484;BME280;47349;55.640;37.692;2023-11-22T00:03:15;99214.84;;;-9.67;100.00
61484;BME280;47349;55.640;37.692;2023-11-22T00:05:42;99210.59;;;-9.69;100.00
61484;BME280;47349;55.640;37.692;2023-11-22T00:08:12;99212.66;;;-9.55;100.00
61484;BME280;47349;55.640;37.692;2023-11-22T00:10:40;99213.03;;;-9.65;100.00
61484;BME280;47349;55.640;37.692;2023-11-22T00:13:07;99203.59;;;-9.67;100.00
61484;BME280;47349;55.640;37.692;2023-11-22T00:15:34;99211.91;;;-9.59;100.00
61484;BME280;47349;55.640;37.692;2023-11-22T00:18:02;99191.44;;;-9.65;100.00
61484;BME280;47349;55.640;37.692;2023-11-22T00:20:30;99215.53;;;-9.63;100.00
61484;BME280;47349;55.640;37.692;2023-11-22T00:22:58;99218.97;;;-9.63;100.00
61484;BME280;47349;55.640;37.692;2023-11-22T00:25:25;99220.50;;;-9.57;100.00
61484;BME280;47349;55.640;37.692;2023-11-22T00:27:53;99202.06;;;-9.71;100.00
61484;BME280;47349;55.640;37.692;2023-11-22T00:30:20;99207.75;;;-9.63;100.00
61484;BME280;47349;55.640;37.692;2023-11-22T00:32:48;99199.22;;;-9.65;100.00
61484;BME280;47349;55.640;37.692;2023-11-22T00:35:16;99213.50;;;-9.55;100.00
61484;BME280;47349;55.640;37.692;2023-11-22T00:37:44;99206.19;;;-9.67;100.00
61484;BME280;47349;55.640;37.692;2023-11-22T00:40:11;99206.66;;;-9.58;100.00
61484;BME280;47349;55.640;37.692;2023-11-22T00:42:40;99202.47;;;-9.60;100.00
61484;BME280;47349;55.640;37.692;2023-11-22T00:45:10;99205.41;;;-9.47;100.00
61484;BME280;47349;55.640;37.692;2023-11-22T00:47:37;99205.72;;;-9.55;100.00
61484;BME280;47349;55.640;37.692;2023-11-22T00:50:07;99198.69;;;-9.53;100.00
61484;BME280;47349;55.640;37.692;2023-11-22T00:52:35;99189.50;;;-9.60;100.00
61484;BME280;47349;55.640;37.692;2023-11-22T00:55:03;99184.84;;;-9.52;100.00
61484;BME280;47349;55.640;37.692;2023-11-22T00:57:31;99221.09;;;-9.50;100.00
61484;BME280;47349;55.640;37.692;2023-11-22T00:59:58;99203.97;;;-9.54;100.00
61484;BME280;47349;55.640;37.692;2023-11-22T01:02:26;99207.22;;;-9.49;100.00
61484;BME280;47349;55.640;37.692;2023-11-22T01:04:53;99201.28;;;-9.53;100.00
61484;BME280;47349;55.640;37.692;2023-11-22T01:07:21;99201.19;;;-9.50;100.00
61484;BME280;47349;55.640;37.692;2023-11-22T01:09:48;99213.84;;;-9.42;100.00
61484;BME280;47349;55.640;37.692;2023-11-22T01:12:15;99195.81;;;-9.45;100.00
61484;BME280;47349;55.640;37.692;2023-11-22T01:14:43;99191.38;;;-9.43;100.00
61484;BME280;47349;55.640;37.692;2023-11-22T01:17:10;99193.94;;;-9.42;100.00
61484;BME280;47349;55.640;37.692;2023-11-22T01:19:37;99184.66;;;-9.47;100.00
61484;BME280;47349;55.640;37.692;2023-11-22T01:22:07;99176.66;;;-9.43;100.00
61484;BME280;47349;55.640;37.692;2023-11-22T01:24:37;99168.94;;;-9.44;100.00
61484;BME280;47349;55.640;37.692;2023-11-22T01:27:05;99200.00;;;-9.43;100.00
61484;BME280;47349;55.640;37.692;2023-11-22T01:29:33;99187.03;;;-9.43;100.00
61484;BME280;47349;55.640;37.692;2023-11-22T01:32:02;99208.00;;;-9.47;100.00
61484;BME280;47349;55.640;37.692;2023-11-22T01:34:29;99195.16;;;-9.50;100.00
61484;BME280;47349;55.640;37.692;2023-11-22T01:37:00;99183.88;;;-9.49;100.00
61484;BME280;47349;55.640;37.692;2023-11-22T01:39:29;99161.50;;;-9.52;100.00
61484;BME280;47349;55.640;37.692;2023-11-22T01:41:57;99203.41;;;-9.41;100.00
61484;BME280;47349;55.640;37.692;2023-11-22T01:44:24;99190.44;;;-9.41;100.00
61484;BME280;47349;55.640;37.692;2023-11-22T01:46:51;99182.00;;;-9.46;100.00
61484;BME280;47349;55.640;37.692;2023-11-22T01:49:19;99205.88;;;-9.38;100.00
61484;BME280;47349;55.640;37.692;2023-11-22T01:51:46;99204.16;;;-9.39;100.00
61484;BME280;47349;55.640;37.692;2023-11-22T01:54:14;99206.06;;;-9.42;100.00
61484;BME280;47349;55.640;37.692;2023-11-22T01:56:47;99205.09;;;-9.40;100.00
61484;BME280;47349;55.640;37.692;2023-11-22T01:59:17;99197.66;;;-9.49;100.00
61484;BME280;47349;55.640;37.692;2023-11-22T02:01:48;99215.72;;;-9.46;100.00
61484;BME280;47349;55.640;37.692;2023-11-22T02:04:17;99209.63;;;-9.45;100.00
61484;BME280;47349;55.640;37.692;2023-11-22T02:06:46;99201.28;;;-9.53;100.00
61484;BME280;47349;55.640;37.692;2023-11-22T02:09:18;99212.28;;;-9.46;100.00
61484;BME280;47349;55.640;37.692;2023-11-22T02:11:52;99224.28;;;-9.44;100.00
61484;BME280;47349;55.640;37.692;2023-11-22T02:14:20;99198.47;;;-9.47;100.00
61484;BME280;47349;55.640;37.692;2023-11-22T02:16:48;99199.50;;;-9.51;100.00
61484;BME280;47349;55.640;37.692;2023-11-22T02:19:17;99232.84;;;-9.42;100.00
61484;BME280;47349;55.640;37.692;2023-11-22T02:21:45;99208.59;;;-9.41;100.00
61484;BME280;47349;55.640;37.692;2023-11-22T02:24:13;99204.31;;;-9.42;100.00
61484;BME280;47349;55.640;37.692;2023-11-22T02:26:45;99196.47;;;-9.40;100.00
61484;BME280;47349;55.640;37.692;2023-11-22T02:29:14;99207.69;;;-9.40;100.00
61484;BME280;47349;55.640;37.692;2023-11-22T02:31:43;99209.34;;;-9.39;100.00
61484;BME280;47349;55.640;37.692;2023-11-22T02:34:10;99203.22;;;-9.36;100.00
61484;BME280;47349;55.640;37.692;2023-11-22T02:36:42;99204.13;;;-9.37;100.00
61484;BME280;47349;55.640;37.692;2023-11-22T02:39:24;99177.56;;;-9.44;100.00
61484;BME280;47349;55.640;37.692;2023-11-22T02:41:56;99212.88;;;-9.40;100.00
61484;BME280;47349;55.640;37.692;2023-11-22T02:44:23;99187.72;;;-9.38;100.00
61484;BME280;47349;55.640;37.692;2023-11-22T02:46:51;99219.63;;;-9.36;100.00
61484;BME280;47349;55.640;37.692;2023-11-22T02:49:18;99204.53;;;-9.48;100.00
61484;BME280;47349;55.640;37.692;2023-11-22T02:51:49;99221.09;;;-9.50;100.00
61484;BME280;47349;55.640;37.692;2023-11-22T02:54:17;99217.75;;;-9.54;100.00
61484;BME280;47349;55.640;37.692;2023-11-22T02:56:45;99196.09;;;-9.53;100.00
61484;BME280;47349;55.640;37.692;2023-11-22T02:59:12;99217.19;;;-9.61;100.00
61484;BME280;47349;55.640;37.692;2023-11-22T03:01:41;99201.53;;;-9.59;100.00
61484;BME280;47349;55.640;37.692;2023-11-22T03:04:10;99210.06;;;-9.55;100.00
61484;BME280;47349;55.640;37.692;2023-11-22T03:06:37;99208.03;;;-9.49;100.00
61484;BME280;47349;55.640;37.692;2023-11-22T03:09:05;99226.75;;;-9.41;100.00
61484;BME280;47349;55.640;37.692;2023-11-22T03:11:32;99244.00;;;-9.40;100.00
61484;BME280;47349;55.640;37.692;2023-11-22T03:14:00;99203.22;;;-9.58;100.00
61484;BME280;47349;55.640;37.692;2023-11-22T03:16:31;99224.22;;;-9.42;100.00
61484;BME280;47349;55.640;37.692;2023-11-22T03:18:59;99223.50;;;-9.46;100.00
61484;BME280;47349;55.640;37.692;2023-11-22T03:21:26;99237.25;;;-9.44;100.00
61484;BME280;47349;55.640;37.692;2023-11-22T03:23:54;99215.66;;;-9.44;100.00
61484;BME280;47349;55.640;37.692;2023-11-22T03:26:22;99225.75;;;-9.38;100.00
61484;BME280;47349;55.640;37.692;2023-11-22T03:28:49;99203.50;;;-9.44;100.00
61484;BME280;47349;55.640;37.692;2023-11-22T03:31:17;99197.41;;;-9.43;100.00
61484;BME280;47349;55.640;37.692;2023-11-22T03:33:44;99219.09;;;-9.44;100.00
61484;BME280;47349;55.640;37.692;2023-11-22T03:36:18;99197.56;;;-9.46;100.00
61484;BME280;47349;55.640;37.692;2023-11-22T03:38:52;99204.69;;;-9.51;100.00
61484;BME280;47349;55.640;37.692;2023-11-22T03:41:34;99217.50;;;-9.48;100.00
61484;BME280;47349;55.640;37.692;2023-11-22T03:44:05;99227.69;;;-9.43;100.00
61484;BME280;47349;55.640;37.692;2023-11-22T03:46:37;99196.00;;;-9.50;100.00
61484;BME280;47349;55.640;37.692;2023-11-22T03:49:06;99230.38;;;-9.45;100.00
61484;BME280;47349;55.640;37.692;2023-11-22T03:51:37;99214.16;;;-9.50;100.00
61484;BME280;47349;55.640;37.692;2023-11-22T03:54:06;99214.91;;;-9.48;100.00
61484;BME280;47349;55.640;37.692;2023-11-22T03:56:34;99209.72;;;-9.48;100.00
61484;BME280;47349;55.640;37.692;2023-11-22T03:59:02;99215.78;;;-9.47;100.00
61484;BME280;47349;55.640;37.692;2023-11-22T04:01:31;99231.13;;;-9.43;100.00
61484;BME280;47349;55.640;37.692;2023-11-22T04:04:12;99230.28;;;-9.43;100.00
61484;BME280;47349;55.640;37.692;2023-11-22T04:06:40;99228.31;;;-9.37;100.00
61484;BME280;47349;55.640;37.692;2023-11-22T04:09:08;99244.00;;;-9.40;100.00
61484;BME280;47349;55.640;37.692;2023-11-22T04:11:43;99221.03;;;-9.49;100.00
61484;BME280;47349;55.640;37.692;2023-11-22T04:32:52;99226.69;;;-9.39;100.00
61484;BME280;47349;55.640;37.692;2023-11-22T04:35:45;99235.72;;;-9.27;100.00
61484;BME280;47349;55.640;37.692;2023-11-22T04:38:13;99241.69;;;-9.25;100.00
61484;BME280;47349;55.640;37.692;2023-11-22T05:10:52;99257.78;;;-9.38;100.00
61484;BME280;47349;55.640;37.692;2023-11-22T05:13:22;99227.47;;;-9.59;100.00
61484;BME280;47349;55.640;37.692;2023-11-22T05:15:51;99232.31;;;-9.50;100.00
61484;BME280;47349;55.640;37.692;2023-11-22T05:18:19;99253.97;;;-9.51;100.00
61484;BME280;47349;55.640;37.692;2023-11-22T05:20:48;99247.88;;;-9.50;100.00
61484;BME280;47349;55.640;37.692;2023-11-22T05:23:16;99264.22;;;-9.48;100.00
61484;BME280;47349;55.640;37.692;2023-11-22T05:25:54;99261.13;;;-9.58;100.00
61484;BME280;47349;55.640;37.692;2023-11-22T05:28:24;99256.69;;;-9.54;100.00
61484;BME280;47349;55.640;37.692;2023-11-22T05:30:52;99234.78;;;-9.69;100.00
61484;BME280;47349;55.640;37.692;2023-11-22T05:33:19;99287.81;;;-9.54;100.00
61484;BME280;47349;55.640;37.692;2023-11-22T05:36:01;99270.00;;;-9.63;99.66
61484;BME280;47349;55.640;37.692;2023-11-22T05:38:34;99288.06;;;-9.60;100.00
61484;BME280;47349;55.640;37.692;2023-11-22T05:41:02;99247.75;;;-9.69;100.00
61484;BME280;47349;55.640;37.692;2023-11-22T05:43:29;99248.22;;;-9.59;100.00
61484;BME280;47349;55.640;37.692;2023-11-22T05:48:55;99245.75;;;-9.62;100.00
61484;BME280;47349;55.640;37.692;2023-11-22T05:51:38;99254.16;;;-9.55;100.00
61484;BME280;47349;55.640;37.692;2023-11-22T06:33:51;99272.28;;;-9.77;96.57
61484;BME280;47349;55.640;37.692;2023-11-22T06:36:20;99278.38;;;-9.78;98.07
61484;BME280;47349;55.640;37.692;2023-11-22T06:38:49;99271.50;;;-9.79;98.90
61484;BME280;47349;55.640;37.692;2023-11-22T06:41:17;99286.97;;;-9.76;97.71
61484;BME280;47349;55.640;37.692;2023-11-22T06:43:45;99285.03;;;-9.71;98.50
61484;BME280;47349;55.640;37.692;2023-11-22T06:46:12;99284.41;;;-9.78;98.31
61484;BME280;47349;55.640;37.692;2023-11-22T06:48:40;99288.16;;;-9.85;97.41
61484;BME280;47349;55.640;37.692;2023-11-22T06:51:12;99278.50;;;-9.81;99.82
61484;BME280;47349;55.640;37.692;2023-11-22T06:53:39;99297.13;;;-9.72;100.00
61484;BME280;47349;55.640;37.692;2023-11-22T06:56:08;99293.09;;;-9.79;100.00
61484;BME280;47349;55.640;37.692;2023-11-22T06:58:35;99306.00;;;-9.77;100.00
61484;BME280;47349;55.640;37.692;2023-11-22T07:01:06;99306.34;;;-9.87;100.00
61484;BME280;47349;55.640;37.692;2023-11-22T07:03:34;99302.72;;;-9.82;98.10
61484;BME280;47349;55.640;37.692;2023-11-22T07:06:02;99288.25;;;-9.88;98.86
61484;BME280;47349;55.640;37.692;2023-11-22T07:08:30;99306.72;;;-9.96;95.56
61484;BME280;47349;55.640;37.692;2023-11-22T07:10:59;99322.03;;;-9.90;96.96
61484;BME280;47349;55.640;37.692;2023-11-22T07:13:32;99320.94;;;-9.84;96.97
61484;BME280;47349;55.640;37.692;2023-11-22T07:52:00;99315.22;;;-9.47;89.59
61484;BME280;47349;55.640;37.692;2023-11-22T07:54:28;99313.22;;;-9.40;89.31
61484;BME280;47349;55.640;37.692;2023-11-22T07:56:57;99312.78;;;-9.29;90.44
61484;BME280;47349;55.640;37.692;2023-11-22T07:59:24;99314.91;;;-9.17;89.51
61484;BME280;47349;55.640;37.692;2023-11-22T08:01:53;99308.69;;;-9.13;89.18
61484;BME280;47349;55.640;37.692;2023-11-22T08:04:22;99307.28;;;-9.22;88.60
61484;BME280;47349;55.640;37.692;2023-11-22T08:06:50;99330.28;;;-9.13;88.75
61484;BME280;47349;55.640;37.692;2023-11-22T08:09:18;99295.03;;;-9.18;89.14
61484;BME280;47349;55.640;37.692;2023-11-22T08:11:46;99313.16;;;-9.17;88.89
61484;BME280;47349;55.640;37.692;2023-11-22T08:14:15;99294.88;;;-9.14;91.01
61484;BME280;47349;55.640;37.692;2023-11-22T08:16:43;99288.81;;;-9.14;88.68
61484;BME280;47349;55.640;37.692;2023-11-22T08:19:13;99308.91;;;-8.97;90.44
61484;BME280;47349;55.640;37.692;2023-11-22T08:21:40;99303.81;;;-9.00;90.17
61484;BME280;47349;55.640;37.692;2023-11-22T08:24:08;99311.50;;;-8.97;87.67
61484;BME280;47349;55.640;37.692;2023-11-22T08:26:36;99319.22;;;-8.96;87.29
61484;BME280;47349;55.640;37.692;2023-11-22T08:29:04;99301.56;;;-9.08;88.22
61484;BME280;47349;55.640;37.692;2023-11-22T08:31:32;99305.03;;;-9.09;87.11
61484;BME280;47349;55.640;37.692;2023-11-22T08:33:59;99289.59;;;-9.12;87.03
61484;BME280;47349;55.640;37.692;2023-11-22T08:36:27;99310.38;;;-9.12;86.76
61484;BME280;47349;55.640;37.692;2023-11-22T08:51:56;99297.28;;;-8.89;86.69
61484;BME280;47349;55.640;37.692;2023-11-22T08:54:26;99324.13;;;-8.90;87.05
61484;BME280;47349;55.640;37.692;2023-11-22T08:56:59;99295.34;;;-9.04;86.59
61484;BME280;47349;55.640;37.692;2023-11-22T08:59:27;99295.72;;;-8.93;86.67
61484;BME280;47349;55.640;37.692;2023-11-22T09:01:55;99303.81;;;-9.00;86.93
61484;BME280;47349;55.640;37.692;2023-11-22T09:04:22;99299.28;;;-8.95;86.30
61484;BME280;47349;55.640;37.692;2023-11-22T09:06:51;99286.81;;;-9.08;86.91
61484;BME280;47349;55.640;37.692;2023-11-22T09:09:20;99282.22;;;-9.01;85.73
61484;BME280;47349;55.640;37.692;2023-11-22T09:11:50;99280.34;;;-8.97;86.15
61484;BME280;47349;55.640;37.692;2023-11-22T09:14:17;99280.00;;;-8.90;85.22
61484;BME280;47349;55.640;37.692;2023-11-22T09:16:46;99290.91;;;-8.82;85.66
61484;BME280;47349;55.640;37.692;2023-11-22T09:19:24;99299.31;;;-8.55;86.48
61484;BME280;47349;55.640;37.692;2023-11-22T09:21:55;99311.91;;;-8.45;84.75
61484;BME280;47349;55.640;37.692;2023-11-22T09:24:22;99296.44;;;-8.48;84.06
61484;BME280;47349;55.640;37.692;2023-11-22T09:26:53;99289.56;;;-8.31;84.61
61484;BME280;47349;55.640;37.692;2023-11-22T09:29:21;99295.91;;;-8.17;84.78
61484;BME280;47349;55.640;37.692;2023-11-22T09:31:48;99304.47;;;-8.15;83.63
61484;BME280;47349;55.640;37.692;2023-11-22T09:34:19;99281.91;;;-8.34;83.82
61484;BME280;47349;55.640;37.692;2023-11-22T09:36:47;99319.13;;;-8.33;83.77
61484;BME280;47349;55.640;37.692;2023-11-22T09:39:14;99289.16;;;-8.21;83.77
61484;BME280;47349;55.640;37.692;2023-11-22T09:41:42;99295.41;;;-8.25;83.42
61484;BME280;47349;55.640;37.692;2023-11-22T09:44:10;99303.78;;;-8.19;85.71
61484;BME280;47349;55.640;37.692;2023-11-22T09:46:41;99290.97;;;-8.23;82.76
61484;BME280;47349;55.640;37.692;2023-11-22T09:49:10;99299.06;;;-8.30;84.13
61484;BME280;47349;55.640;37.692;2023-11-22T09:51:43;99318.59;;;-8.21;85.37
61484;BME280;47349;55.640;37.692;2023-11-22T09:54:11;99318.53;;;-8.19;85.04
61484;BME280;47349;55.640;37.692;2023-11-22T09:56:41;99310.41;;;-8.32;84.98
61484;BME280;47349;55.640;37.692;2023-11-22T09:59:13;99294.59;;;-8.46;86.29
61484;BME280;47349;55.640;37.692;2023-11-22T10:01:42;99320.59;;;-8.28;86.16
61484;BME280;47349;55.640;37.692;2023-11-22T10:04:12;99284.28;;;-8.48;85.98
61484;BME280;47349;55.640;37.692;2023-11-22T10:06:40;99304.81;;;-8.42;86.35
61484;BME280;47349;55.640;37.692;2023-11-22T10:09:12;99302.81;;;-8.56;87.09
61484;BME280;47349;55.640;37.692;2023-11-22T10:11:41;99311.31;;;-8.52;86.80
61484;BME280;47349;55.640;37.692;2023-11-22T10:14:11;99313.50;;;-8.43;86.13
61484;BME280;47349;55.640;37.692;2023-11-22T10:16:59;99290.28;;;-8.46;85.33
61484;BME280;47349;55.640;37.692;2023-11-22T10:19:27;99290.25;;;-8.27;84.88
61484;BME280;47349;55.640;37.692;2023-11-22T10:22:07;99305.53;;;-8.19;84.93
61484;BME280;47349;55.640;37.692;2023-11-22T10:24:37;99293.97;;;-8.33;84.30
61484;BME280;47349;55.640;37.692;2023-11-22T10:27:04;99295.25;;;-8.22;85.14
61484;BME280;47349;55.640;37.692;2023-11-22T10:29:33;99289.81;;;-8.16;84.31
61484;BME280;47349;55.640;37.692;2023-11-22T10:32:03;99276.16;;;-8.21;84.86
61484;BME280;47349;55.640;37.692;2023-11-22T10:34:33;99295.91;;;-7.98;85.58
61484;BME280;47349;55.640;37.692;2023-11-22T10:37:02;99303.50;;;-7.94;84.58
61484;BME280;47349;55.640;37.692;2023-11-22T10:39:31;99285.50;;;-8.17;84.33
61484;BME280;47349;55.640;37.692;2023-11-22T10:42:00;99290.09;;;-8.04;85.26
61484;BME280;47349;55.640;37.692;2023-11-22T10:44:35;99311.09;;;-8.08;84.89
61484;BME280;47349;55.640;37.692;2023-11-22T10:47:06;99301.91;;;-7.96;83.84
61484;BME280;47349;55.640;37.692;2023-11-22T10:49:35;99312.34;;;-7.98;83.03
61484;BME280;47349;55.640;37.692;2023-11-22T10:52:05;99294.53;;;-8.06;85.33
61484;BME280;47349;55.640;37.692;2023-11-22T10:54:37;99306.69;;;-8.06;84.92
61484;BME280;47349;55.640;37.692;2023-11-22T10:57:10;99276.41;;;-8.07;85.43
61484;BME280;47349;55.640;37.692;2023-11-22T10:59:42;99295.84;;;-8.16;85.16
61484;BME280;47349;55.640;37.692;2023-11-22T11:02:16;99304.09;;;-8.06;86.61
61484;BME280;47349;55.640;37.692;2023-11-22T11:04:55;99300.56;;;-8.05;86.35
61484;BME280;47349;55.640;37.692;2023-11-22T11:07:28;99294.22;;;-8.18;85.88
61484;BME280;47349;55.640;37.692;2023-11-22T11:09:59;99299.38;;;-8.17;87.22
61484;BME280;47349;55.640;37.692;2023-11-22T11:12:39;99276.38;;;-8.26;87.54
61484;BME280;47349;55.640;37.692;2023-11-22T11:15:06;99288.06;;;-8.16;87.59
61484;BME280;47349;55.640;37.692;2023-11-22T11:17:35;99299.72;;;-8.06;87.16
61484;BME280;47349;55.640;37.692;2023-11-22T11:42:33;99250.53;;;-8.10;88.56
61484;BME280;47349;55.640;37.692;2023-11-22T11:49:55;99251.16;;;-8.24;89.19
61484;BME280;47349;55.640;37.692;2023-11-22T11:54:29;99253.63;;;-8.21;90.17
61484;BME280;47349;55.640;37.692;2023-11-22T11:57:00;99276.81;;;-8.16;90.09
61484;BME280;47349;55.640;37.692;2023-11-22T12:02:48;99289.28;;;-8.24;91.51
61484;BME280;47349;55.640;37.692;2023-11-22T12:11:35;99275.78;;;-8.33;92.09
61484;BME280;47349;55.640;37.692;2023-11-22T12:14:55;99266.75;;;-8.43;93.78
61484;BME280;47349;55.640;37.692;2023-11-22T12:19:22;99287.84;;;-8.32;91.99
61484;BME280;47349;55.640;37.692;2023-11-22T12:30:02;99324.56;;;-8.38;92.50
61484;BME280;47349;55.640;37.692;2023-11-22T12:42:09;99302.34;;;-8.45;92.62
61484;BME280;47349;55.640;37.692;2023-11-22T12:44:48;99312.75;;;-8.45;93.75
61484;BME280;47349;55.640;37.692;2023-11-22T13:57:48;99301.31;;;-9.46;90.37
61484;BME280;47349;55.640;37.692;2023-11-22T14:01:38;99329.53;;;-9.38;91.31
61484;BME280;47349;55.640;37.692;2023-11-22T15:56:34;99338.72;;;-9.29;90.08
61484;BME280;47349;55.640;37.692;2023-11-22T15:59:02;99317.31;;;-9.35;88.66
61484;BME280;47349;55.640;37.692;2023-11-22T16:01:35;99325.34;;;-9.41;88.60
61484;BME280;47349;55.640;37.692;2023-11-22T16:57:09;99315.88;;;-8.99;91.96
61484;BME280;47349;55.640;37.692;2023-11-22T17:24:09;99280.47;;;-8.80;91.70
61484;BME280;47349;55.640;37.692;2023-11-22T17:26:38;99279.22;;;-8.71;93.34
61484;BME280;47349;55.640;37.692;2023-11-22T17:29:06;99263.91;;;-8.77;92.20
61484;BME280;47349;55.640;37.692;2023-11-22T17:35:33;99279.50;;;-8.77;90.58
61484;BME280;47349;55.640;37.692;2023-11-22T17:38:13;99284.31;;;-8.68;92.99
61484;BME280;47349;55.640;37.692;2023-11-22T17:40:41;99284.03;;;-8.62;92.06
61484;BME280;47349;55.640;37.692;2023-11-22T17:43:09;99275.19;;;-8.58;91.33
61484;BME280;47349;55.640;37.692;2023-11-22T17:45:37;99293.28;;;-8.55;92.25
61484;BME280;47349;55.640;37.692;2023-11-22T17:48:07;99260.72;;;-8.64;91.69
61484;BME280;47349;55.640;37.692;2023-11-22T17:50:35;99255.72;;;-8.68;92.09
61484;BME280;47349;55.640;37.692;2023-11-22T17:53:03;99271.41;;;-8.51;92.46
61484;BME280;47349;55.640;37.692;2023-11-22T17:55:32;99274.53;;;-8.43;92.23
61484;BME280;47349;55.640;37.692;2023-11-22T17:57:59;99268.22;;;-8.37;93.62
61484;BME280;47349;55.640;37.692;2023-11-22T18:00:27;99265.63;;;-8.37;93.57
61484;BME280;47349;55.640;37.692;2023-11-22T18:02:55;99267.94;;;-8.31;91.95
61484;BME280;47349;55.640;37.692;2023-11-22T18:05:23;99259.34;;;-8.33;91.71
61484;BME280;47349;55.640;37.692;2023-11-22T18:07:52;99263.22;;;-8.23;93.26
61484;BME280;47349;55.640;37.692;2023-11-22T18:10:19;99260.50;;;-8.20;93.04
61484;BME280;47349;55.640;37.692;2023-11-22T18:12:47;99275.97;;;-8.17;92.28
61484;BME280;47349;55.640;37.692;2023-11-22T18:15:14;99252.81;;;-8.23;94.00
61484;BME280;47349;55.640;37.692;2023-11-22T18:17:42;99261.00;;;-8.12;93.27
61484;BME280;47349;55.640;37.692;2023-11-22T18:20:10;99237.19;;;-8.21;93.54
61484;BME280;47349;55.640;37.692;2023-11-22T18:22:37;99237.59;;;-8.12;94.24
61484;BME280;47349;55.640;37.692;2023-11-22T18:25:05;99227.88;;;-8.08;95.20
61484;BME280;47349;55.640;37.692;2023-11-22T18:27:35;99242.84;;;-7.94;97.50
61484;BME280;47349;55.640;37.692;2023-11-22T18:30:04;99241.94;;;-7.93;93.77
61484;BME280;47349;55.640;37.692;2023-11-22T18:32:32;99256.03;;;-7.97;95.11
61484;BME280;47349;55.640;37.692;2023-11-22T18:34:59;99238.03;;;-8.02;94.67
61484;BME280;47349;55.640;37.692;2023-11-22T18:37:27;99267.94;;;-7.93;93.65
61484;BME280;47349;55.640;37.692;2023-11-22T18:39:55;99242.09;;;-7.96;93.93
61484;BME280;47349;55.640;37.692;2023-11-22T18:52:19;99235.91;;;-7.94;95.64
61484;BME280;47349;55.640;37.692;2023-11-22T18:54:47;99241.94;;;-7.93;95.26
61484;BME280;47349;55.640;37.692;2023-11-22T18:57:15;99241.38;;;-8.00;95.19
61484;BME280;47349;55.640;37.692;2023-11-22T18:59:42;99249.59;;;-7.90;95.80
61484;BME280;47349;55.640;37.692;2023-11-22T19:02:13;99251.78;;;-8.00;97.03
61484;BME280;47349;55.640;37.692;2023-11-22T19:05:08;99252.22;;;-8.09;99.25
61484;BME280;47349;55.640;37.692;2023-11-22T19:08:48;99252.91;;;-8.06;100.00
61484;BME280;47349;55.640;37.692;2023-11-22T19:13:18;99241.25;;;-8.16;100.00
61484;BME280;47349;55.640;37.692;2023-11-22T19:17:09;99243.91;;;-8.17;100.00
61484;BME280;47349;55.640;37.692;2023-11-22T19:21:48;99240.94;;;-8.29;100.00
61484;BME280;47349;55.640;37.692;2023-11-22T19:25:19;99261.06;;;-8.13;100.00
61484;BME280;47349;55.640;37.692;2023-11-22T19:30:03;99243.50;;;-8.08;100.00
61484;BME280;47349;55.640;37.692;2023-11-22T19:34:19;99232.81;;;-8.21;100.00
61484;BME280;47349;55.640;37.692;2023-11-22T19:37:11;99267.03;;;-8.11;100.00
61484;BME280;47349;55.640;37.692;2023-11-22T19:41:25;99236.25;;;-8.20;100.00
61484;BME280;47349;55.640;37.692;2023-11-22T19:45:21;99236.91;;;-8.15;100.00
61484;BME280;47349;55.640;37.692;2023-11-22T19:49:57;99228.59;;;-8.23;100.00
61484;BME280;47349;55.640;37.692;2023-11-22T19:53:48;99231.97;;;-8.21;100.00
61484;BME280;47349;55.640;37.692;2023-11-22T19:57:32;99252.63;;;-8.18;100.00
61484;BME280;47349;55.640;37.692;2023-11-22T20:01:34;99271.66;;;-8.18;99.82
61484;BME280;47349;55.640;37.692;2023-11-22T20:05:10;99221.84;;;-8.28;94.39
61484;BME280;47349;55.640;37.692;2023-11-22T20:08:49;99239.41;;;-8.33;93.94
61484;BME280;47349;55.640;37.692;2023-11-22T20:11:52;99217.47;;;-8.08;89.71
61484;BME280;47349;55.640;37.692;2023-11-22T20:16:55;99234.13;;;-8.12;87.62
61484;BME280;47349;55.640;37.692;2023-11-22T20:19:44;99239.34;;;-8.12;83.98
61484;BME280;47349;55.640;37.692;2023-11-22T20:36:34;99249.25;;;-8.20;81.03
61484;BME280;47349;55.640;37.692;2023-11-22T20:39:33;99207.47;;;-8.16;81.60
61484;BME280;47349;55.640;37.692;2023-11-22T22:35:33;99126.56;;;-8.65;75.69
61484;BME280;47349;55.640;37.692;2023-11-22T22:59:41;99115.44;;;-8.31;72.14
61484;BME280;47349;55.640;37.692;2023-11-22T23:03:18;99113.81;;;-8.33;73.04
61484;BME280;47349;55.640;37.692;2023-11-22T23:06:27;99109.19;;;-8.26;72.94
61484;BME280;47349;55.640;37.692;2023-11-22T23:15:22;99070.94;;;-8.42;73.70
61484;BME280;47349;55.640;37.692;2023-11-22T23:18:50;99083.72;;;-8.20;74.40
61484;BME280;47349;55.640;37.692;2023-11-22T23:22:44;99111.63;;;-8.23;74.83
61484;BME280;47349;55.640;37.692;2023-11-22T23:35:39;99090.19;;;-8.29;75.41
61484;BME280;47349;55.640;37.692;2023-11-22T23:39:51;99095.53;;;-8.32;77.73
61484;BME280;47349;55.640;37.692;2023-11-22T23:43:05;99096.03;;;-8.41;80.86
61484;BME280;47349;55.640;37.692;2023-11-22T23:46:44;99073.28;;;-8.55;82.55
61484;BME280;47349;55.640;37.692;2023-11-22T23:49:33;99058.53;;;-8.54;84.47
61484;BME280;47349;55.640;37.692;2023-11-22T23:54:13;99075.78;;;-8.53;87.64
